sensor_id;sensor_type;location;lat;lon;timestamp;temperature;humidity
70214;DHT22;60138;55.808;37.078;2022-12-07T00:00:41;-7.06;56.78
70214;DHT22;60138;55.808;37.078;2022-12-07T00:03:07;-7.05;56.23
70214;DHT22;60138;55.808;37.078;2022-12-07T00:05:33;-7.05;56.44
70214;DHT22;60138;55.808;37.078;2022-12-07T00:07:58;-7.05;56.28
70214;DHT22;60138;55.808;37.078;2022-12-07T00:10:24;-7.04;56.60
70214;DHT22;60138;55.808;37.078;2022-12-07T00:12:50;-7.03;57.03
70214;DHT22;60138;55.808;37.078;2022-12-07T00:15:15;-7.04;56.74
70214;DHT22;60138;55.808;37.078;2022-12-07T00:17:41;-7.04;56.64
70214;DHT22;60138;55.808;37.078;2022-12-07T00:20:07;-7.06;56.55
70214;DHT22;60138;55.808;37.078;2022-12-07T00:22:33;-7.05;56.92
70214;DHT22;60138;55.808;37.078;2022-12-07T00:24:59;-7.07;56.63
70214;DHT22;60138;55.808;37.078;2022-12-07T00:27:27;-7.10;56.27
70214;DHT22;60138;55.808;37.078;2022-12-07T00:29:52;-7.09;56.26
70214;DHT22;60138;55.808;37.078;2022-12-07T00:32:18;-7.11;55.84
70214;DHT22;60138;55.808;37.078;2022-12-07T00:34:44;-7.12;56.35
70214;DHT22;60138;55.808;37.078;2022-12-07T00:37:12;-7.12;56.34
70214;DHT22;60138;55.808;37.078;2022-12-07T00:39:38;-7.12;56.29
70214;DHT22;60138;55.808;37.078;2022-12-07T00:42:03;-7.15;56.49
70214;DHT22;60138;55.808;37.078;2022-12-07T00:44:29;-7.17;55.58
70214;DHT22;60138;55.808;37.078;2022-12-07T00:46:55;-7.18;56.27
70214;DHT22;60138;55.808;37.078;2022-12-07T00:49:20;-7.21;56.13
70214;DHT22;60138;55.808;37.078;2022-12-07T00:51:48;-7.24;56.32
70214;DHT22;60138;55.808;37.078;2022-12-07T00:54:16;-7.25;56.57
70214;DHT22;60138;55.808;37.078;2022-12-07T00:56:42;-7.29;56.84
70214;DHT22;60138;55.808;37.078;2022-12-07T00:59:13;-7.31;56.77
70214;DHT22;60138;55.808;37.078;2022-12-07T01:01:38;-7.34;56.77
70214;DHT22;60138;55.808;37.078;2022-12-07T01:04:05;-7.37;56.88
70214;DHT22;60138;55.808;37.078;2022-12-07T01:06:31;-7.42;56.44
70214;DHT22;60138;55.808;37.078;2022-12-07T01:08:57;-7.45;56.65
70214;DHT22;60138;55.808;37.078;2022-12-07T01:11:24;-7.49;56.45
70214;DHT22;60138;55.808;37.078;2022-12-07T01:13:51;-7.55;56.84
70214;DHT22;60138;55.808;37.078;2022-12-07T01:16:18;-7.57;56.86
70214;DHT22;60138;55.808;37.078;2022-12-07T01:18:47;-7.61;56.77
70214;DHT22;60138;55.808;37.078;2022-12-07T01:21:16;-7.67;56.87
70214;DHT22;60138;55.808;37.078;2022-12-07T01:23:43;-7.74;56.74
70214;DHT22;60138;55.808;37.078;2022-12-07T01:26:14;-7.81;56.79
70214;DHT22;60138;55.808;37.078;2022-12-07T01:28:40;-7.85;57.31
70214;DHT22;60138;55.808;37.078;2022-12-07T01:31:08;-7.93;57.06
70214;DHT22;60138;55.808;37.078;2022-12-07T01:33:36;-7.97;57.54
70214;DHT22;60138;55.808;37.078;2022-12-07T01:38:32;-8.08;57.24
70214;DHT22;60138;55.808;37.078;2022-12-07T01:41:03;-8.10;57.44
70214;DHT22;60138;55.808;37.078;2022-12-07T01:43:30;-8.14;58.04
70214;DHT22;60138;55.808;37.078;2022-12-07T01:45:56;-8.18;57.48
70214;DHT22;60138;55.808;37.078;2022-12-07T01:48:27;-8.21;57.50
70214;DHT22;60138;55.808;37.078;2022-12-07T01:50:56;-8.22;57.45
70214;DHT22;60138;55.808;37.078;2022-12-07T01:53:26;-8.24;57.26
70214;DHT22;60138;55.808;37.078;2022-12-07T01:55:55;-8.26;57.15
70214;DHT22;60138;55.808;37.078;2022-12-07T01:58:21;-8.27;57.25
70214;DHT22;60138;55.808;37.078;2022-12-07T02:00:47;-8.30;57.04
70214;DHT22;60138;55.808;37.078;2022-12-07T02:03:21;-8.33;57.37
70214;DHT22;60138;55.808;37.078;2022-12-07T02:05:49;-8.35;57.57
70214;DHT22;60138;55.808;37.078;2022-12-07T02:08:16;-8.35;57.43
70214;DHT22;60138;55.808;37.078;2022-12-07T02:10:43;-8.39;57.64
70214;DHT22;60138;55.808;37.078;2022-12-07T02:13:26;-8.41;57.50
70214;DHT22;60138;55.808;37.078;2022-12-07T02:27:11;-8.57;57.81
70214;DHT22;60138;55.808;37.078;2022-12-07T02:29:51;-8.60;58.25
70214;DHT22;60138;55.808;37.078;2022-12-07T02:32:31;-8.60;58.12
70214;DHT22;60138;55.808;37.078;2022-12-07T02:37:43;-8.67;58.45
70214;DHT22;60138;55.808;37.078;2022-12-07T02:43:26;-8.81;58.74
70214;DHT22;60138;55.808;37.078;2022-12-07T02:45:56;-8.86;58.73
70214;DHT22;60138;55.808;37.078;2022-12-07T02:48:24;-8.94;58.72
70214;DHT22;60138;55.808;37.078;2022-12-07T02:50:52;-8.98;58.70
70214;DHT22;60138;55.808;37.078;2022-12-07T02:53:47;-9.07;58.90
70214;DHT22;60138;55.808;37.078;2022-12-07T03:12:28;-9.40;59.49
70214;DHT22;60138;55.808;37.078;2022-12-07T03:15:13;-9.46;59.51
70214;DHT22;60138;55.808;37.078;2022-12-07T03:17:42;-9.49;59.61
70214;DHT22;60138;55.808;37.078;2022-12-07T03:20:11;-9.53;59.47
70214;DHT22;60138;55.808;37.078;2022-12-07T03:22:40;-9.56;59.66
70214;DHT22;60138;55.808;37.078;2022-12-07T03:25:10;-9.58;59.83
70214;DHT22;60138;55.808;37.078;2022-12-07T03:27:41;-9.59;59.73
70214;DHT22;60138;55.808;37.078;2022-12-07T03:33:21;-9.64;59.76
70214;DHT22;60138;55.808;37.078;2022-12-07T03:35:29;-9.67;59.96
70214;DHT22;60138;55.808;37.078;2022-12-07T03:38:17;-9.69;59.94
70214;DHT22;60138;55.808;37.078;2022-12-07T03:40:47;-9.72;60.00
70214;DHT22;60138;55.808;37.078;2022-12-07T03:43:15;-9.74;60.06
70214;DHT22;60138;55.808;37.078;2022-12-07T03:45:44;-9.72;60.27
70214;DHT22;60138;55.808;37.078;2022-12-07T03:48:16;-9.75;60.23
70214;DHT22;60138;55.808;37.078;2022-12-07T03:51:20;-9.77;60.26
70214;DHT22;60138;55.808;37.078;2022-12-07T03:54:05;-9.79;60.24
70214;DHT22;60138;55.808;37.078;2022-12-07T03:56:33;-9.85;60.32
70214;DHT22;60138;55.808;37.078;2022-12-07T03:58:59;-9.88;60.46
70214;DHT22;60138;55.808;37.078;2022-12-07T04:01:25;-9.89;60.49
70214;DHT22;60138;55.808;37.078;2022-12-07T04:03:51;-9.92;60.52
70214;DHT22;60138;55.808;37.078;2022-12-07T04:06:16;-9.93;60.56
70214;DHT22;60138;55.808;37.078;2022-12-07T04:08:42;-9.99;60.56
70214;DHT22;60138;55.808;37.078;2022-12-07T04:11:12;-10.01;60.67
70214;DHT22;60138;55.808;37.078;2022-12-07T04:13:40;-10.04;60.78
70214;DHT22;60138;55.808;37.078;2022-12-07T04:16:08;-10.06;60.86
70214;DHT22;60138;55.808;37.078;2022-12-07T04:18:34;-10.11;60.87
70214;DHT22;60138;55.808;37.078;2022-12-07T04:21:00;-10.12;60.89
70214;DHT22;60138;55.808;37.078;2022-12-07T04:23:25;-10.14;60.88
70214;DHT22;60138;55.808;37.078;2022-12-07T04:25:51;-10.15;61.00
70214;DHT22;60138;55.808;37.078;2022-12-07T04:28:17;-10.13;61.05
70214;DHT22;60138;55.808;37.078;2022-12-07T04:30:42;-10.17;61.12
70214;DHT22;60138;55.808;37.078;2022-12-07T04:33:08;-10.18;61.21
70214;DHT22;60138;55.808;37.078;2022-12-07T04:35:33;-10.19;61.18
70214;DHT22;60138;55.808;37.078;2022-12-07T04:37:59;-10.22;61.29
70214;DHT22;60138;55.808;37.078;2022-12-07T04:40:25;-10.22;61.39
70214;DHT22;60138;55.808;37.078;2022-12-07T04:42:52;-10.25;61.34
70214;DHT22;60138;55.808;37.078;2022-12-07T04:45:17;-10.25;61.41
70214;DHT22;60138;55.808;37.078;2022-12-07T04:47:43;-10.26;61.47
70214;DHT22;60138;55.808;37.078;2022-12-07T04:50:09;-10.27;61.58
70214;DHT22;60138;55.808;37.078;2022-12-07T04:52:35;-10.26;61.60
70214;DHT22;60138;55.808;37.078;2022-12-07T04:55:00;-10.27;61.55
70214;DHT22;60138;55.808;37.078;2022-12-07T04:57:26;-10.27;61.67
70214;DHT22;60138;55.808;37.078;2022-12-07T04:59:52;-10.26;61.67
70214;DHT22;60138;55.808;37.078;2022-12-07T05:02:20;-10.27;61.73
70214;DHT22;60138;55.808;37.078;2022-12-07T05:04:46;-10.26;61.86
70214;DHT22;60138;55.808;37.078;2022-12-07T05:07:11;-10.23;61.86
70214;DHT22;60138;55.808;37.078;2022-12-07T05:09:37;-10.23;61.93
70214;DHT22;60138;55.808;37.078;2022-12-07T05:12:03;-10.25;61.93
70214;DHT22;60138;55.808;37.078;2022-12-07T05:14:28;-10.25;61.94
70214;DHT22;60138;55.808;37.078;2022-12-07T05:16:54;-10.27;61.96
70214;DHT22;60138;55.808;37.078;2022-12-07T05:19:20;-10.30;62.02
70214;DHT22;60138;55.808;37.078;2022-12-07T05:21:46;-10.34;62.12
70214;DHT22;60138;55.808;37.078;2022-12-07T05:24:13;-10.36;62.20
70214;DHT22;60138;55.808;37.078;2022-12-07T05:26:39;-10.38;62.23
70214;DHT22;60138;55.808;37.078;2022-12-07T05:29:05;-10.40;62.25
70214;DHT22;60138;55.808;37.078;2022-12-07T05:31:31;-10.42;62.31
70214;DHT22;60138;55.808;37.078;2022-12-07T05:34:00;-10.44;62.36
70214;DHT22;60138;55.808;37.078;2022-12-07T05:36:25;-10.46;62.66
70214;DHT22;60138;55.808;37.078;2022-12-07T05:38:51;-10.41;62.55
70214;DHT22;60138;55.808;37.078;2022-12-07T05:41:18;-10.42;62.47
70214;DHT22;60138;55.808;37.078;2022-12-07T05:43:44;-10.42;62.47
70214;DHT22;60138;55.808;37.078;2022-12-07T05:46:10;-10.45;62.66
70214;DHT22;60138;55.808;37.078;2022-12-07T05:48:35;-10.44;62.77
70214;DHT22;60138;55.808;37.078;2022-12-07T05:51:01;-10.45;62.82
70214;DHT22;60138;55.808;37.078;2022-12-07T05:53:27;-10.46;62.79
70214;DHT22;60138;55.808;37.078;2022-12-07T05:55:52;-10.45;62.85
70214;DHT22;60138;55.808;37.078;2022-12-07T05:58:18;-10.42;63.00
70214;DHT22;60138;55.808;37.078;2022-12-07T06:00:44;-10.38;63.06
70214;DHT22;60138;55.808;37.078;2022-12-07T06:03:09;-10.34;63.08
70214;DHT22;60138;55.808;37.078;2022-12-07T06:05:37;-10.34;63.09
70214;DHT22;60138;55.808;37.078;2022-12-07T06:08:03;-10.35;63.25
70214;DHT22;60138;55.808;37.078;2022-12-07T06:10:29;-10.31;63.22
70214;DHT22;60138;55.808;37.078;2022-12-07T06:12:54;-10.32;63.28
70214;DHT22;60138;55.808;37.078;2022-12-07T06:15:20;-10.30;63.42
70214;DHT22;60138;55.808;37.078;2022-12-07T06:17:47;-10.29;63.41
70214;DHT22;60138;55.808;37.078;2022-12-07T06:20:12;-10.28;63.48
70214;DHT22;60138;55.808;37.078;2022-12-07T06:22:38;-10.27;63.64
70214;DHT22;60138;55.808;37.078;2022-12-07T06:25:04;-10.26;63.63
70214;DHT22;60138;55.808;37.078;2022-12-07T06:27:30;-10.25;63.66
70214;DHT22;60138;55.808;37.078;2022-12-07T06:29:56;-10.20;63.71
70214;DHT22;60138;55.808;37.078;2022-12-07T06:32:21;-10.19;63.69
70214;DHT22;60138;55.808;37.078;2022-12-07T06:34:47;-10.16;63.73
70214;DHT22;60138;55.808;37.078;2022-12-07T06:37:16;-10.10;63.86
70214;DHT22;60138;55.808;37.078;2022-12-07T06:39:42;-10.06;64.01
70214;DHT22;60138;55.808;37.078;2022-12-07T06:42:10;-10.03;64.02
70214;DHT22;60138;55.808;37.078;2022-12-07T06:44:36;-10.01;63.98
70214;DHT22;60138;55.808;37.078;2022-12-07T06:47:01;-9.97;64.15
70214;DHT22;60138;55.808;37.078;2022-12-07T06:49:27;-9.91;64.02
70214;DHT22;60138;55.808;37.078;2022-12-07T06:51:53;-9.86;64.11
70214;DHT22;60138;55.808;37.078;2022-12-07T06:54:18;-9.85;64.21
70214;DHT22;60138;55.808;37.078;2022-12-07T07:00:09;-9.74;64.60
70214;DHT22;60138;55.808;37.078;2022-12-07T07:02:46;-9.70;65.11
70214;DHT22;60138;55.808;37.078;2022-12-07T07:05:22;-9.64;64.72
70214;DHT22;60138;55.808;37.078;2022-12-07T07:08:17;-9.56;64.70
70214;DHT22;60138;55.808;37.078;2022-12-07T07:11:03;-9.52;64.44
70214;DHT22;60138;55.808;37.078;2022-12-07T07:14:04;-9.46;64.63
70214;DHT22;60138;55.808;37.078;2022-12-07T07:16:54;-9.43;64.56
70214;DHT22;60138;55.808;37.078;2022-12-07T07:19:41;-9.39;64.46
70214;DHT22;60138;55.808;37.078;2022-12-07T07:22:21;-9.34;64.91
70214;DHT22;60138;55.808;37.078;2022-12-07T07:24:49;-9.27;64.92
70214;DHT22;60138;55.808;37.078;2022-12-07T07:27:18;-9.26;64.85
70214;DHT22;60138;55.808;37.078;2022-12-07T07:30:03;-9.22;64.76
70214;DHT22;60138;55.808;37.078;2022-12-07T07:32:30;-9.17;64.66
70214;DHT22;60138;55.808;37.078;2022-12-07T07:34:58;-9.15;64.56
70214;DHT22;60138;55.808;37.078;2022-12-07T07:37:25;-9.11;64.63
70214;DHT22;60138;55.808;37.078;2022-12-07T07:39:51;-9.08;64.53
70214;DHT22;60138;55.808;37.078;2022-12-07T07:42:16;-9.02;64.56
70214;DHT22;60138;55.808;37.078;2022-12-07T07:44:43;-8.98;64.65
70214;DHT22;60138;55.808;37.078;2022-12-07T07:47:09;-8.93;64.72
70214;DHT22;60138;55.808;37.078;2022-12-07T07:49:34;-8.86;64.56
70214;DHT22;60138;55.808;37.078;2022-12-07T07:52:00;-8.79;64.65
70214;DHT22;60138;55.808;37.078;2022-12-07T07:54:26;-8.72;64.76
70214;DHT22;60138;55.808;37.078;2022-12-07T07:56:52;-8.63;64.40
70214;DHT22;60138;55.808;37.078;2022-12-07T07:59:20;-8.58;64.11
70214;DHT22;60138;55.808;37.078;2022-12-07T08:01:48;-8.55;64.43
70214;DHT22;60138;55.808;37.078;2022-12-07T08:04:16;-8.51;64.55
70214;DHT22;60138;55.808;37.078;2022-12-07T08:07:02;-8.49;64.21
70214;DHT22;60138;55.808;37.078;2022-12-07T08:09:34;-8.43;64.27
70214;DHT22;60138;55.808;37.078;2022-12-07T08:12:14;-8.40;63.88
70214;DHT22;60138;55.808;37.078;2022-12-07T08:14:59;-8.39;63.88
70214;DHT22;60138;55.808;37.078;2022-12-07T08:17:29;-8.36;63.92
70214;DHT22;60138;55.808;37.078;2022-12-07T08:19:54;-8.31;63.77
70214;DHT22;60138;55.808;37.078;2022-12-07T08:22:32;-8.30;63.59
70214;DHT22;60138;55.808;37.078;2022-12-07T08:24:57;-8.28;63.63
70214;DHT22;60138;55.808;37.078;2022-12-07T08:27:23;-8.25;63.57
70214;DHT22;60138;55.808;37.078;2022-12-07T08:29:52;-8.21;63.95
70214;DHT22;60138;55.808;37.078;2022-12-07T08:32:17;-8.15;63.50
70214;DHT22;60138;55.808;37.078;2022-12-07T08:34:53;-8.12;63.50
70214;DHT22;60138;55.808;37.078;2022-12-07T08:37:44;-8.11;63.26
70214;DHT22;60138;55.808;37.078;2022-12-07T08:40:22;-8.09;63.01
70214;DHT22;60138;55.808;37.078;2022-12-07T08:43:05;-8.06;63.15
70214;DHT22;60138;55.808;37.078;2022-12-07T08:45:40;-8.00;63.31
70214;DHT22;60138;55.808;37.078;2022-12-07T08:48:10;-7.95;63.36
70214;DHT22;60138;55.808;37.078;2022-12-07T08:50:43;-7.90;63.59
70214;DHT22;60138;55.808;37.078;2022-12-07T08:53:09;-7.85;63.60
70214;DHT22;60138;55.808;37.078;2022-12-07T08:55:55;-7.80;63.08
70214;DHT22;60138;55.808;37.078;2022-12-07T08:58:32;-7.80;63.15
70214;DHT22;60138;55.808;37.078;2022-12-07T09:01:24;-7.77;62.86
70214;DHT22;60138;55.808;37.078;2022-12-07T09:03:55;-7.70;62.78
70214;DHT22;60138;55.808;37.078;2022-12-07T09:06:53;-7.71;61.86
70214;DHT22;60138;55.808;37.078;2022-12-07T09:09:30;-7.71;62.44
70214;DHT22;60138;55.808;37.078;2022-12-07T09:12:03;-7.68;62.41
70214;DHT22;60138;55.808;37.078;2022-12-07T09:14:44;-7.66;62.37
70214;DHT22;60138;55.808;37.078;2022-12-07T09:17:43;-7.64;61.92
70214;DHT22;60138;55.808;37.078;2022-12-07T09:20:23;-7.59;62.07
70214;DHT22;60138;55.808;37.078;2022-12-07T09:23:18;-7.53;61.96
70214;DHT22;60138;55.808;37.078;2022-12-07T09:25:52;-7.52;61.76
70214;DHT22;60138;55.808;37.078;2022-12-07T09:28:24;-7.51;61.93
70214;DHT22;60138;55.808;37.078;2022-12-07T09:31:20;-7.47;61.75
70214;DHT22;60138;55.808;37.078;2022-12-07T09:34:08;-7.40;62.29
70214;DHT22;60138;55.808;37.078;2022-12-07T09:36:42;-7.38;61.77
70214;DHT22;60138;55.808;37.078;2022-12-07T09:39:20;-7.36;61.01
70214;DHT22;60138;55.808;37.078;2022-12-07T09:41:56;-7.34;61.78
70214;DHT22;60138;55.808;37.078;2022-12-07T09:44:50;-7.31;61.10
70214;DHT22;60138;55.808;37.078;2022-12-07T09:47:33;-7.22;61.90
70214;DHT22;60138;55.808;37.078;2022-12-07T09:50:05;-7.18;61.44
70214;DHT22;60138;55.808;37.078;2022-12-07T09:53:45;-7.15;61.13
70214;DHT22;60138;55.808;37.078;2022-12-07T09:56:37;-7.10;60.46
70214;DHT22;60138;55.808;37.078;2022-12-07T09:59:03;-7.11;60.64
70214;DHT22;60138;55.808;37.078;2022-12-07T10:01:31;-7.07;61.22
70214;DHT22;60138;55.808;37.078;2022-12-07T10:04:18;-7.04;60.66
70214;DHT22;60138;55.808;37.078;2022-12-07T10:06:45;-7.05;60.88
70214;DHT22;60138;55.808;37.078;2022-12-07T10:09:12;-7.03;60.76
70214;DHT22;60138;55.808;37.078;2022-12-07T10:11:57;-7.05;60.44
70214;DHT22;60138;55.808;37.078;2022-12-07T10:14:23;-7.06;60.37
70214;DHT22;60138;55.808;37.078;2022-12-07T10:16:49;-7.06;60.54
70214;DHT22;60138;55.808;37.078;2022-12-07T10:24:24;-6.97;60.31
70214;DHT22;60138;55.808;37.078;2022-12-07T10:26:52;-6.94;61.00
70214;DHT22;60138;55.808;37.078;2022-12-07T10:31:52;-6.93;60.54
70214;DHT22;60138;55.808;37.078;2022-12-07T10:34:37;-6.93;60.80
70214;DHT22;60138;55.808;37.078;2022-12-07T10:37:23;-6.93;60.83
70214;DHT22;60138;55.808;37.078;2022-12-07T10:39:49;-6.91;60.74
70214;DHT22;60138;55.808;37.078;2022-12-07T10:42:30;-6.87;61.19
70214;DHT22;60138;55.808;37.078;2022-12-07T10:45:16;-6.89;60.62
70214;DHT22;60138;55.808;37.078;2022-12-07T10:58:31;-6.89;60.02
70214;DHT22;60138;55.808;37.078;2022-12-07T11:06:47;-6.85;60.57
70214;DHT22;60138;55.808;37.078;2022-12-07T11:11:56;-6.87;60.78
70214;DHT22;60138;55.808;37.078;2022-12-07T11:17:04;-6.90;59.38
70214;DHT22;60138;55.808;37.078;2022-12-07T11:22:41;-6.92;59.72
70214;DHT22;60138;55.808;37.078;2022-12-07T11:28:06;-6.95;59.48
70214;DHT22;60138;55.808;37.078;2022-12-07T11:33:46;-6.98;58.62
70214;DHT22;60138;55.808;37.078;2022-12-07T11:38:53;-6.98;59.13
70214;DHT22;60138;55.808;37.078;2022-12-07T11:41:39;-6.98;59.16
70214;DHT22;60138;55.808;37.078;2022-12-07T11:47:16;-7.03;58.70
70214;DHT22;60138;55.808;37.078;2022-12-07T11:55:17;-7.09;58.65
70214;DHT22;60138;55.808;37.078;2022-12-07T11:57:46;-7.09;58.80
70214;DHT22;60138;55.808;37.078;2022-12-07T12:00:16;-7.11;59.19
70214;DHT22;60138;55.808;37.078;2022-12-07T12:02:55;-7.17;59.13
70214;DHT22;60138;55.808;37.078;2022-12-07T12:05:24;-7.19;58.80
70214;DHT22;60138;55.808;37.078;2022-12-07T12:08:21;-7.23;59.49
70214;DHT22;60138;55.808;37.078;2022-12-07T12:10:55;-7.25;59.43
70214;DHT22;60138;55.808;37.078;2022-12-07T12:13:57;-7.26;60.09
70214;DHT22;60138;55.808;37.078;2022-12-07T12:21:57;-7.36;59.87
70214;DHT22;60138;55.808;37.078;2022-12-07T12:24:31;-7.38;59.79
70214;DHT22;60138;55.808;37.078;2022-12-07T12:27:08;-7.40;60.47
70214;DHT22;60138;55.808;37.078;2022-12-07T12:29:37;-7.44;59.87
70214;DHT22;60138;55.808;37.078;2022-12-07T12:32:22;-7.49;59.99
70214;DHT22;60138;55.808;37.078;2022-12-07T12:35:00;-7.52;59.93
70214;DHT22;60138;55.808;37.078;2022-12-07T12:37:39;-7.56;59.80
70214;DHT22;60138;55.808;37.078;2022-12-07T12:42:53;-7.63;60.61
70214;DHT22;60138;55.808;37.078;2022-12-07T12:45:20;-7.65;60.11
70214;DHT22;60138;55.808;37.078;2022-12-07T12:47:53;-7.71;60.07
70214;DHT22;60138;55.808;37.078;2022-12-07T12:53:15;-7.77;60.35
70214;DHT22;60138;55.808;37.078;2022-12-07T13:02:21;-7.83;60.42
70214;DHT22;60138;55.808;37.078;2022-12-07T13:15:38;-8.03;60.78
70214;DHT22;60138;55.808;37.078;2022-12-07T13:20:47;-8.08;61.12
70214;DHT22;60138;55.808;37.078;2022-12-07T13:23:17;-8.09;61.02
70214;DHT22;60138;55.808;37.078;2022-12-07T13:31:44;-8.22;61.28
70214;DHT22;60138;55.808;37.078;2022-12-07T13:34:36;-8.24;61.60
70214;DHT22;60138;55.808;37.078;2022-12-07T13:37:18;-8.26;61.54
70214;DHT22;60138;55.808;37.078;2022-12-07T13:39:58;-8.29;61.66
70214;DHT22;60138;55.808;37.078;2022-12-07T13:42:33;-8.33;61.77
70214;DHT22;60138;55.808;37.078;2022-12-07T13:45:16;-8.38;61.87
70214;DHT22;60138;55.808;37.078;2022-12-07T13:47:52;-8.41;61.99
70214;DHT22;60138;55.808;37.078;2022-12-07T13:50:26;-8.41;61.89
70214;DHT22;60138;55.808;37.078;2022-12-07T13:52:56;-8.45;62.03
70214;DHT22;60138;55.808;37.078;2022-12-07T13:55:22;-8.46;62.21
70214;DHT22;60138;55.808;37.078;2022-12-07T13:57:50;-8.49;62.31
70214;DHT22;60138;55.808;37.078;2022-12-07T14:00:28;-8.50;62.27
70214;DHT22;60138;55.808;37.078;2022-12-07T14:03:04;-8.54;62.39
70214;DHT22;60138;55.808;37.078;2022-12-07T14:05:34;-8.54;62.47
70214;DHT22;60138;55.808;37.078;2022-12-07T14:10:53;-8.59;62.58
70214;DHT22;60138;55.808;37.078;2022-12-07T14:15:58;-8.60;62.92
70214;DHT22;60138;55.808;37.078;2022-12-07T14:18:40;-8.63;62.89
70214;DHT22;60138;55.808;37.078;2022-12-07T14:23:40;-8.67;63.04
70214;DHT22;60138;55.808;37.078;2022-12-07T14:26:14;-8.69;63.15
70214;DHT22;60138;55.808;37.078;2022-12-07T14:28:42;-8.70;63.08
70214;DHT22;60138;55.808;37.078;2022-12-07T14:31:12;-8.72;63.11
70214;DHT22;60138;55.808;37.078;2022-12-07T14:33:39;-8.73;63.18
70214;DHT22;60138;55.808;37.078;2022-12-07T14:36:06;-8.77;63.31
70214;DHT22;60138;55.808;37.078;2022-12-07T14:38:31;-8.78;63.40
70214;DHT22;60138;55.808;37.078;2022-12-07T14:40:57;-8.78;63.39
70214;DHT22;60138;55.808;37.078;2022-12-07T14:43:23;-8.79;63.35
70214;DHT22;60138;55.808;37.078;2022-12-07T14:45:48;-8.77;63.36
70214;DHT22;60138;55.808;37.078;2022-12-07T14:48:15;-8.77;63.41
70214;DHT22;60138;55.808;37.078;2022-12-07T14:50:45;-8.79;63.40
70214;DHT22;60138;55.808;37.078;2022-12-07T14:53:17;-8.83;63.38
70214;DHT22;60138;55.808;37.078;2022-12-07T14:55:43;-8.84;63.42
70214;DHT22;60138;55.808;37.078;2022-12-07T14:58:18;-8.84;63.44
70214;DHT22;60138;55.808;37.078;2022-12-07T15:00:44;-8.88;63.43
70214;DHT22;60138;55.808;37.078;2022-12-07T15:03:10;-8.94;63.56
70214;DHT22;60138;55.808;37.078;2022-12-07T15:05:36;-8.93;63.61
70214;DHT22;60138;55.808;37.078;2022-12-07T15:08:03;-8.90;63.60
70214;DHT22;60138;55.808;37.078;2022-12-07T15:10:31;-8.94;63.53
70214;DHT22;60138;55.808;37.078;2022-12-07T15:12:58;-8.97;63.55
70214;DHT22;60138;55.808;37.078;2022-12-07T15:15:24;-8.96;63.58
70214;DHT22;60138;55.808;37.078;2022-12-07T15:17:49;-8.98;63.69
70214;DHT22;60138;55.808;37.078;2022-12-07T15:20:15;-8.96;63.63
70214;DHT22;60138;55.808;37.078;2022-12-07T15:22:41;-8.98;63.71
70214;DHT22;60138;55.808;37.078;2022-12-07T15:25:08;-8.99;63.76
70214;DHT22;60138;55.808;37.078;2022-12-07T15:27:34;-8.95;63.79
70214;DHT22;60138;55.808;37.078;2022-12-07T15:30:00;-8.95;63.76
70214;DHT22;60138;55.808;37.078;2022-12-07T15:32:25;-8.96;63.74
70214;DHT22;60138;55.808;37.078;2022-12-07T15:34:51;-8.97;63.96
70214;DHT22;60138;55.808;37.078;2022-12-07T15:37:17;-8.99;63.79
70214;DHT22;60138;55.808;37.078;2022-12-07T15:39:42;-9.03;63.79
70214;DHT22;60138;55.808;37.078;2022-12-07T15:42:08;-9.03;63.85
70214;DHT22;60138;55.808;37.078;2022-12-07T15:44:34;-9.01;63.84
70214;DHT22;60138;55.808;37.078;2022-12-07T15:47:00;-9.04;63.99
70214;DHT22;60138;55.808;37.078;2022-12-07T15:49:26;-9.05;63.85
70214;DHT22;60138;55.808;37.078;2022-12-07T15:51:53;-9.11;63.91
70214;DHT22;60138;55.808;37.078;2022-12-07T15:54:25;-9.11;63.89
70214;DHT22;60138;55.808;37.078;2022-12-07T15:56:51;-9.12;63.90
70214;DHT22;60138;55.808;37.078;2022-12-07T15:59:16;-9.14;64.21
70214;DHT22;60138;55.808;37.078;2022-12-07T16:01:42;-9.16;64.08
70214;DHT22;60138;55.808;37.078;2022-12-07T16:04:08;-9.19;64.27
70214;DHT22;60138;55.808;37.078;2022-12-07T16:06:34;-9.15;64.18
70214;DHT22;60138;55.808;37.078;2022-12-07T16:09:00;-9.13;64.17
70214;DHT22;60138;55.808;37.078;2022-12-07T16:11:25;-9.17;64.21
70214;DHT22;60138;55.808;37.078;2022-12-07T16:13:51;-9.17;64.22
70214;DHT22;60138;55.808;37.078;2022-12-07T16:16:19;-9.18;64.24
70214;DHT22;60138;55.808;37.078;2022-12-07T16:18:46;-9.18;64.36
70214;DHT22;60138;55.808;37.078;2022-12-07T16:21:12;-9.17;64.49
70214;DHT22;60138;55.808;37.078;2022-12-07T16:23:38;-9.19;64.81
70214;DHT22;60138;55.808;37.078;2022-12-07T16:26:16;-9.22;64.75
70214;DHT22;60138;55.808;37.078;2022-12-07T16:28:43;-9.20;64.81
70214;DHT22;60138;55.808;37.078;2022-12-07T16:31:12;-9.20;64.65
70214;DHT22;60138;55.808;37.078;2022-12-07T16:33:39;-9.24;64.95
70214;DHT22;60138;55.808;37.078;2022-12-07T16:36:07;-9.23;64.74
70214;DHT22;60138;55.808;37.078;2022-12-07T16:38:33;-9.24;64.70
70214;DHT22;60138;55.808;37.078;2022-12-07T16:40:59;-9.23;65.00
70214;DHT22;60138;55.808;37.078;2022-12-07T16:43:24;-9.24;64.94
70214;DHT22;60138;55.808;37.078;2022-12-07T16:45:50;-9.24;64.99
70214;DHT22;60138;55.808;37.078;2022-12-07T16:48:16;-9.26;65.07
70214;DHT22;60138;55.808;37.078;2022-12-07T16:50:43;-9.25;64.93
70214;DHT22;60138;55.808;37.078;2022-12-07T16:53:10;-9.28;65.00
70214;DHT22;60138;55.808;37.078;2022-12-07T16:55:40;-9.30;65.14
70214;DHT22;60138;55.808;37.078;2022-12-07T16:58:06;-9.30;65.11
70214;DHT22;60138;55.808;37.078;2022-12-07T17:00:33;-9.31;65.18
70214;DHT22;60138;55.808;37.078;2022-12-07T17:02:59;-9.32;65.04
70214;DHT22;60138;55.808;37.078;2022-12-07T17:05:27;-9.34;65.27
70214;DHT22;60138;55.808;37.078;2022-12-07T17:07:53;-9.36;65.49
70214;DHT22;60138;55.808;37.078;2022-12-07T17:10:19;-9.34;65.57
70214;DHT22;60138;55.808;37.078;2022-12-07T17:12:45;-9.34;65.56
70214;DHT22;60138;55.808;37.078;2022-12-07T17:15:11;-9.33;65.54
70214;DHT22;60138;55.808;37.078;2022-12-07T17:17:36;-9.32;65.19
70214;DHT22;60138;55.808;37.078;2022-12-07T17:20:02;-9.33;65.37
70214;DHT22;60138;55.808;37.078;2022-12-07T17:22:29;-9.33;65.53
70214;DHT22;60138;55.808;37.078;2022-12-07T17:24:55;-9.34;65.65
70214;DHT22;60138;55.808;37.078;2022-12-07T17:27:21;-9.36;65.62
70214;DHT22;60138;55.808;37.078;2022-12-07T17:29:47;-9.39;65.78
70214;DHT22;60138;55.808;37.078;2022-12-07T17:32:12;-9.39;66.17
70214;DHT22;60138;55.808;37.078;2022-12-07T17:34:38;-9.40;65.96
70214;DHT22;60138;55.808;37.078;2022-12-07T17:37:04;-9.42;65.83
70214;DHT22;60138;55.808;37.078;2022-12-07T17:39:29;-9.44;65.83
70214;DHT22;60138;55.808;37.078;2022-12-07T17:41:55;-9.44;65.97
70214;DHT22;60138;55.808;37.078;2022-12-07T17:44:21;-9.45;66.06
70214;DHT22;60138;55.808;37.078;2022-12-07T17:46:49;-9.44;66.32
70214;DHT22;60138;55.808;37.078;2022-12-07T17:49:15;-9.42;66.18